Allison, Texas
Current Conditions -  °F | °C
As of 9:15 AM on Thursday 23 Oct 2014 (Local Time) from KHHF Reporting Station
Haze Haze  
Wind Chill: 16°   Ceiling: Unl
Heat Index: 16°   Visibility: 5mi
Dew Point: 15°   Wind: 3mph
Humidity: 97%   Direction: 240°WSW
Pressure: 30.09"   Gusts: NA
Location:  35.61°N, 100.1°W
Report Text: KHHF 231415Z AUTO 24003KT 5SM BR CLR 16/15 A3009 RMK AO2 T01580153
Loading
Personal Weather Stations






























Interactive Weather Map
Tropical Storm Tracking
New forecast layout! Learn more

10-Day Weather Forecast

Advertisements
Track Severe Weather on mobile